createdAt,value
2022-10-11T02:59:34.879Z,100.00
2022-10-11T03:12:57.097Z,100.00
2022-10-11T03:34:59.551Z,100.00
2022-10-11T03:50:12.100Z,100.00
2022-10-11T03:55:58.465Z,100.00
2022-10-11T04:06:51.635Z,99.01
2022-10-11T04:12:25.452Z,98.40
2022-10-11T04:44:56.329Z,100.00
2022-10-11T05:24:27.000Z,100.00
2022-10-11T05:29:46.230Z,100.00
2022-10-11T05:32:17.781Z,100.00
2022-10-11T05:34:56.615Z,100.00
2022-10-11T05:37:31.622Z,100.00
2022-10-11T05:40:06.495Z,100.00
2022-10-11T05:42:36.702Z,100.00
2022-10-11T05:45:28.297Z,100.00
2022-10-11T05:48:04.572Z,100.00
2022-10-11T05:50:39.431Z,100.00
2022-10-11T05:53:07.690Z,100.00
2022-10-11T05:55:41.215Z,100.00
2022-10-11T05:58:12.286Z,100.00
2022-10-11T06:00:55.187Z,100.00
2022-10-11T06:03:39.357Z,100.00
2022-10-11T06:06:12.483Z,100.00
2022-10-11T06:08:45.393Z,100.00
2022-10-11T06:17:21.096Z,100.00
2022-10-11T06:19:57.323Z,100.00
2022-10-11T06:25:28.490Z,100.00
2022-10-11T06:28:10.912Z,100.00
2022-10-11T06:30:53.394Z,100.00
2022-10-11T06:33:32.388Z,100.00
2022-10-11T06:36:21.430Z,100.00
2022-10-11T06:38:57.446Z,100.00
2022-10-11T06:41:38.146Z,99.31
2022-10-11T06:44:17.156Z,98.40
2022-10-11T06:55:17.314Z,96.62
2022-10-11T07:00:43.144Z,96.12
2022-10-11T07:03:15.375Z,93.16
2022-10-11T07:05:49.101Z,92.72
2022-10-11T07:08:18.605Z,92.98
2022-10-11T07:10:50.526Z,91.92
2022-10-11T07:13:21.175Z,91.01
2022-10-11T07:15:57.407Z,90.26
2022-10-11T07:18:26.207Z,91.11
2022-10-11T07:20:58.170Z,92.41
2022-10-11T07:23:34.331Z,90.01
2022-10-11T07:26:12.360Z,91.03
2022-10-11T07:28:44.936Z,90.13
2022-10-11T07:31:19.011Z,90.89
2022-10-11T07:36:35.148Z,88.60
2022-10-11T07:39:15.080Z,89.61
2022-10-11T07:41:53.123Z,88.45
2022-10-11T07:44:28.374Z,89.90
2022-10-11T07:47:01.312Z,89.40
2022-10-11T07:49:31.121Z,89.82
2022-10-11T07:54:51.544Z,88.63
2022-10-11T07:57:26.450Z,88.58
2022-10-11T08:00:03.386Z,87.46
2022-10-11T08:02:42.150Z,87.14
2022-10-11T08:05:12.598Z,84.86
2022-10-11T08:08:06.720Z,84.98
2022-10-11T08:10:44.237Z,85.45
2022-10-11T08:13:18.406Z,85.81
2022-10-11T08:15:47.306Z,88.20
2022-10-11T08:18:46.404Z,85.94
2022-10-11T08:21:21.594Z,83.49
2022-10-11T08:24:06.526Z,81.77
2022-10-11T08:26:40.048Z,80.89
2022-10-11T08:29:31.233Z,80.47
2022-10-11T08:32:00.608Z,79.96
2022-10-11T08:34:37.152Z,82.37
2022-10-11T08:39:56.295Z,79.04
2022-10-11T08:42:42.299Z,78.04
2022-10-11T08:48:51.183Z,75.82
2022-10-11T08:51:40.083Z,75.35
2022-10-11T09:09:30.159Z,70.49
2022-10-11T09:12:18.508Z,68.63
2022-10-11T09:15:10.142Z,66.49
2022-10-11T09:18:08.923Z,66.44
2022-10-11T09:21:06.621Z,65.08
2022-10-11T09:24:01.832Z,63.49
2022-10-11T09:29:44.547Z,63.82
2022-10-11T09:32:25.099Z,64.19
2022-10-11T09:41:11.418Z,51.77
2022-10-11T09:43:48.707Z,53.69
2022-10-11T09:46:30.233Z,53.57
2022-10-11T09:52:05.053Z,50.82
2022-10-11T09:55:25.109Z,46.86
2022-10-11T09:58:01.443Z,45.72
2022-10-11T10:00:44.722Z,46.72
2022-10-11T10:03:57.437Z,44.74
2022-10-11T10:06:29.902Z,45.22
2022-10-11T10:09:23.739Z,41.88
2022-10-11T10:12:00.909Z,42.70
2022-10-11T10:14:38.470Z,48.50
2022-10-11T10:17:33.346Z,44.49
2022-10-11T10:20:07.717Z,44.39
2022-10-11T10:22:49.234Z,43.88
2022-10-11T10:25:33.468Z,45.06
2022-10-11T10:28:22.904Z,44.42
2022-10-11T10:31:18.330Z,41.79
2022-10-11T10:34:02.396Z,40.71
2022-10-11T10:36:40.770Z,41.08
2022-10-11T10:39:18.288Z,39.77
2022-10-11T10:44:45.293Z,42.55
2022-10-11T10:48:06.418Z,41.47
2022-10-11T10:54:14.499Z,38.82
2022-10-11T10:56:57.525Z,37.37
2022-10-11T10:59:55.098Z,38.42
2022-10-11T11:02:41.568Z,40.21
2022-10-11T11:05:44.269Z,37.25
2022-10-11T11:08:24.520Z,40.17
2022-10-11T11:14:33.910Z,39.25
2022-10-11T11:17:32.584Z,34.47
2022-10-11T11:20:59.425Z,35.56
2022-10-11T11:23:45.714Z,35.07
2022-10-11T11:26:34.541Z,37.34
2022-10-11T11:29:26.494Z,36.89
2022-10-11T11:32:27.662Z,34.82
2022-10-11T11:38:15.848Z,36.55
2022-10-11T11:40:55.654Z,33.31
2022-10-11T11:46:34.095Z,32.20
2022-10-11T11:49:31.157Z,30.22
2022-10-11T11:55:06.616Z,33.44
2022-10-11T11:58:07.953Z,35.59
2022-10-11T12:07:17.778Z,37.61
2022-10-11T12:09:53.340Z,38.68
2022-10-11T12:12:40.084Z,36.82
2022-10-11T12:15:39.168Z,40.18
2022-10-11T12:18:26.545Z,38.98
2022-10-11T12:21:12.110Z,43.29
2022-10-11T12:24:07.381Z,41.09
2022-10-11T12:26:48.749Z,43.43
2022-10-11T12:30:03.492Z,42.60
2022-10-11T12:32:57.187Z,38.10
2022-10-11T12:50:26.692Z,41.11
2022-10-11T12:56:11.844Z,37.40
2022-10-11T12:58:59.632Z,38.63
2022-10-11T13:01:41.306Z,40.00
2022-10-11T13:13:00.339Z,34.01
2022-10-11T13:15:30.201Z,36.99
2022-10-11T13:26:25.212Z,35.82
2022-10-11T13:28:58.150Z,34.71
2022-10-11T13:31:29.705Z,38.08
2022-10-11T13:34:00.850Z,37.34
2022-10-11T13:36:49.806Z,37.67
2022-10-11T13:42:43.743Z,36.69
2022-10-11T13:45:21.109Z,34.02
2022-10-11T13:47:56.478Z,32.51
2022-10-11T13:50:33.582Z,31.25
2022-10-11T13:53:22.928Z,36.44
2022-10-11T13:55:55.839Z,33.58
2022-10-11T13:58:46.445Z,30.84
2022-10-11T14:04:29.822Z,29.76
2022-10-11T14:07:09.687Z,33.44
2022-10-11T14:10:01.452Z,37.00
2022-10-11T14:12:57.125Z,36.34
2022-10-11T14:15:48.964Z,32.31
2022-10-11T14:19:10.050Z,31.45
2022-10-11T14:22:08.653Z,34.03
2022-10-11T14:30:56.971Z,34.54
2022-10-11T14:33:34.793Z,36.48
2022-10-11T14:36:22.773Z,34.87
2022-10-11T14:41:54.803Z,32.49
2022-10-11T14:44:30.833Z,32.19
2022-10-11T14:47:23.332Z,33.10
2022-10-11T14:49:56.738Z,32.23
2022-10-11T14:52:27.324Z,33.30
2022-10-11T14:57:58.497Z,35.41
2022-10-11T15:00:57.629Z,38.43
2022-10-11T15:03:37.479Z,39.56
2022-10-11T15:06:26.898Z,41.71
2022-10-11T15:12:43.037Z,37.51
2022-10-11T15:18:16.028Z,35.77
2022-10-11T15:20:52.884Z,38.15
2022-10-11T15:23:28.853Z,37.81
2022-10-11T15:25:58.311Z,39.28
2022-10-11T15:28:36.534Z,43.58
2022-10-11T15:31:09.731Z,43.20
2022-10-11T15:33:47.641Z,42.08
2022-10-11T15:36:23.150Z,42.94
2022-10-11T15:39:08.474Z,44.71
2022-10-11T15:41:39.156Z,45.33
2022-10-11T15:44:08.955Z,45.67
2022-10-11T15:49:40.392Z,46.86
2022-10-11T15:52:13.332Z,48.02
2022-10-11T15:54:55.769Z,47.06
2022-10-11T15:57:40.151Z,45.90
2022-10-11T16:03:04.945Z,46.49
2022-10-11T16:05:43.299Z,45.70
2022-10-11T16:08:23.476Z,45.74
2022-10-11T16:11:17.547Z,44.03
2022-10-11T16:13:49.794Z,43.75
2022-10-11T16:16:29.099Z,43.93
2022-10-11T16:22:05.391Z,45.25
2022-10-11T16:30:38.851Z,50.09
2022-10-11T16:33:49.134Z,52.34
2022-10-11T16:36:37.353Z,54.79
2022-10-11T16:42:01.086Z,57.99
2022-10-11T17:02:38.822Z,63.33
2022-10-11T21:15:03.470Z,91.41
2022-10-11T21:17:31.486Z,91.96
2022-10-11T21:20:02.036Z,92.53
2022-10-11T21:22:30.659Z,91.98
2022-10-11T21:24:59.178Z,91.74
2022-10-11T21:27:27.710Z,93.39
2022-10-11T21:29:56.226Z,93.67
2022-10-11T21:32:25.874Z,92.89
2022-10-11T21:34:54.096Z,92.58
2022-10-11T21:37:24.746Z,92.38
2022-10-11T21:39:52.859Z,92.37
2022-10-11T21:42:22.281Z,92.33
2022-10-11T21:44:52.986Z,92.69
2022-10-11T21:47:21.286Z,93.23
2022-10-11T21:49:50.728Z,93.61
2022-10-11T21:52:18.971Z,94.02
2022-10-11T21:54:47.107Z,93.70
2022-10-11T21:57:15.221Z,93.65
2022-10-11T21:59:43.623Z,93.91
2022-10-11T22:02:12.001Z,94.69
2022-10-11T22:04:40.146Z,95.23
2022-10-11T22:07:09.844Z,94.95
2022-10-11T22:09:37.956Z,95.52
2022-10-11T22:12:06.477Z,96.57
2022-10-11T22:14:34.789Z,97.49
2022-10-11T22:17:02.928Z,97.68
2022-10-11T22:19:31.089Z,97.60
2022-10-11T22:21:59.085Z,97.37
2022-10-11T22:24:29.159Z,96.96
2022-10-11T22:26:57.484Z,97.23
2022-10-11T22:29:27.675Z,97.41
2022-10-11T22:31:58.845Z,98.07
2022-10-11T22:34:27.063Z,97.86
2022-10-11T22:36:55.369Z,97.92
2022-10-11T22:39:24.053Z,98.60
2022-10-11T22:41:54.789Z,98.22
2022-10-11T22:44:23.252Z,97.97
2022-10-11T22:46:51.363Z,97.75
2022-10-11T22:49:20.584Z,98.17
2022-10-11T22:51:51.103Z,99.08
2022-10-11T22:54:19.061Z,99.68
2022-10-11T22:56:47.276Z,99.66
2022-10-11T22:59:16.834Z,99.85
2022-10-11T23:01:44.597Z,99.39
2022-10-11T23:04:12.420Z,99.27
2022-10-11T23:06:40.364Z,99.14
2022-10-11T23:09:08.321Z,98.45
2022-10-11T23:11:36.297Z,98.20
2022-10-11T23:14:04.475Z,98.05
2022-10-11T23:16:33.794Z,97.70
2022-10-11T23:19:01.656Z,98.35
2022-10-11T23:21:29.666Z,98.71
2022-10-11T23:23:57.423Z,98.45
2022-10-11T23:26:25.330Z,98.79
2022-10-11T23:28:55.248Z,99.90
2022-10-11T23:31:24.001Z,100.00
2022-10-11T23:33:54.671Z,99.91
2022-10-11T23:36:25.282Z,100.00
2022-10-11T23:38:54.611Z,100.00
2022-10-11T23:41:22.636Z,100.00
2022-10-11T23:43:50.452Z,100.00
2022-10-11T23:46:18.466Z,100.00
2022-10-11T23:48:46.143Z,100.00
2022-10-11T23:51:15.487Z,100.00
2022-10-11T23:53:43.429Z,100.00
2022-10-11T23:56:12.502Z,100.00
2022-10-11T23:58:40.606Z,100.00
